createdAt,value
2023-01-04T00:00:00.255Z,91.2
2023-01-04T00:10:00.256Z,91.6
2023-01-04T00:20:00.266Z,92.4
2023-01-04T00:30:00.254Z,91.9
2023-01-04T00:40:00.276Z,92.4
2023-01-04T00:50:00.250Z,85.8
2023-01-04T01:00:00.309Z,78.3
2023-01-04T01:10:00.299Z,80.6
2023-01-04T01:20:00.268Z,76.5
2023-01-04T01:30:00.237Z,78.8
2023-01-04T01:40:00.360Z,74.7
2023-01-04T01:50:00.521Z,82.2
2023-01-04T02:00:00.744Z,87.1
2023-01-04T02:10:00.795Z,89.9
2023-01-04T02:20:00.529Z,89.9
2023-01-04T02:30:00.723Z,90.8
2023-01-04T02:40:00.589Z,90.8
2023-01-04T02:50:05.088Z,93.4
2023-01-04T03:00:00.293Z,92.9
2023-01-04T03:10:00.454Z,92.9
2023-01-04T03:20:00.257Z,94.1
2023-01-04T03:30:00.247Z,94.3
2023-01-04T03:40:00.304Z,94.9
2023-01-04T03:50:00.282Z,94.4
2023-01-04T04:00:00.264Z,95.8
2023-01-04T04:10:00.258Z,95.5
2023-01-04T04:20:00.260Z,95.4
2023-01-04T04:30:00.272Z,95.3
2023-01-04T04:40:00.270Z,95.2
2023-01-04T04:50:00.244Z,95.4
2023-01-04T05:00:00.253Z,96.0
2023-01-04T05:10:00.255Z,96.7
2023-01-04T05:20:00.264Z,96.4
2023-01-04T05:30:00.255Z,95.7
2023-01-04T05:40:00.251Z,95.4
2023-01-04T05:50:00.258Z,95.5
2023-01-04T06:00:00.256Z,96.7
2023-01-04T06:10:00.265Z,96.8
2023-01-04T06:20:00.244Z,96.2
2023-01-04T06:30:00.257Z,95.1
2023-01-04T06:40:00.577Z,95.9
2023-01-04T06:50:02.187Z,96.4
2023-01-04T07:10:07.091Z,97.0
2023-01-04T07:20:00.509Z,97.3
2023-01-04T07:30:00.524Z,98.2
2023-01-04T07:40:00.561Z,97.8
2023-01-04T07:50:00.495Z,98.6
2023-01-04T08:00:00.502Z,98.5
2023-01-04T08:10:00.542Z,98.3
2023-01-04T08:20:00.500Z,97.3
2023-01-04T08:30:00.550Z,94.9
2023-01-04T08:40:00.501Z,92.7
2023-01-04T08:50:06.560Z,92.5
2023-01-04T09:00:00.490Z,90.4
2023-01-04T09:10:00.514Z,89.7
2023-01-04T09:20:00.500Z,84.9
2023-01-04T09:30:00.495Z,80.0
2023-01-04T09:40:00.511Z,76.7
2023-01-04T09:50:00.492Z,74.0
2023-01-04T10:00:00.532Z,74.2
2023-01-04T10:10:00.494Z,72.7
2023-01-04T10:30:00.542Z,70.5
2023-01-04T10:40:00.660Z,69.0
2023-01-04T10:50:00.681Z,66.6
2023-01-04T11:00:00.927Z,64.5
2023-01-04T11:10:00.752Z,62.8
2023-01-04T11:20:00.735Z,60.1
2023-01-04T11:30:01.483Z,56.1
2023-01-04T11:40:00.988Z,57.1
2023-01-04T11:50:00.768Z,55.6
2023-01-04T12:00:01.048Z,53.5
2023-01-04T12:10:00.627Z,54.9
2023-01-04T12:20:00.575Z,54.8
2023-01-04T12:30:00.501Z,55.2
2023-01-04T12:40:00.844Z,53.8
2023-01-04T12:50:00.494Z,55.1
2023-01-04T13:00:00.513Z,54.2
2023-01-04T13:10:00.534Z,57.3
2023-01-04T13:20:00.488Z,60.4
2023-01-04T13:30:00.509Z,64.1
2023-01-04T13:40:00.510Z,68.6
2023-01-04T13:50:00.494Z,69.9
2023-01-04T14:00:00.496Z,70.9
2023-01-04T14:10:00.509Z,72.3
2023-01-04T14:20:00.518Z,71.2
2023-01-04T14:30:00.604Z,72.5
2023-01-04T14:40:00.499Z,74.2
2023-01-04T14:50:00.549Z,75.3
2023-01-04T15:00:00.491Z,77.3
2023-01-04T15:10:00.496Z,78.9
2023-01-04T15:20:00.490Z,80.5
2023-01-04T15:30:00.546Z,82.8
2023-01-04T15:40:03.239Z,85.0
2023-01-04T15:50:00.489Z,86.5
2023-01-04T16:00:00.689Z,85.1
2023-01-04T16:10:00.876Z,88.2
2023-01-04T16:20:00.704Z,89.5
2023-01-04T16:30:00.893Z,89.8
2023-01-04T16:40:08.821Z,89.2
2023-01-04T16:50:00.704Z,88.9
2023-01-04T17:00:00.874Z,88.4
2023-01-04T17:10:01.342Z,90.4
2023-01-04T17:20:00.735Z,90.6
2023-01-04T17:30:00.698Z,90.6
2023-01-04T17:40:01.153Z,89.1
2023-01-04T17:50:00.485Z,88.1
2023-01-04T18:00:00.860Z,85.7
2023-01-04T18:10:00.477Z,84.9
2023-01-04T18:20:00.507Z,83.5
2023-01-04T18:30:00.474Z,82.4
2023-01-04T18:40:00.500Z,82.5
2023-01-04T18:50:00.463Z,83.1
2023-01-04T19:00:00.447Z,83.5
2023-01-04T19:10:00.413Z,84.4
2023-01-04T19:20:00.417Z,85.3
2023-01-04T19:30:00.452Z,85.6
2023-01-04T19:40:00.430Z,85.7
2023-01-04T19:50:00.444Z,86.0
2023-01-04T20:00:00.431Z,85.6
2023-01-04T20:10:00.433Z,85.6
2023-01-04T20:20:00.417Z,85.8
2023-01-04T20:30:00.420Z,87.1
2023-01-04T20:40:00.430Z,87.0
2023-01-04T20:50:00.439Z,87.0
2023-01-04T21:00:00.626Z,86.7
2023-01-04T21:10:00.688Z,87.3
2023-01-04T21:20:00.798Z,87.2
2023-01-04T21:30:00.636Z,88.0
2023-01-04T21:40:00.678Z,87.7
2023-01-04T21:50:00.757Z,87.4
2023-01-04T22:00:00.579Z,87.9
2023-01-04T22:10:00.736Z,88.0
2023-01-04T22:20:00.647Z,88.1
2023-01-04T22:30:00.568Z,88.4
2023-01-04T22:40:00.515Z,88.3
2023-01-04T22:50:00.477Z,88.5
2023-01-04T23:00:00.594Z,88.3
2023-01-04T23:10:00.428Z,88.8
2023-01-04T23:20:00.444Z,88.5
2023-01-04T23:30:00.469Z,88.7
2023-01-04T23:40:00.432Z,89.8
2023-01-04T23:50:00.421Z,91.0
